Time;durP1;ratioP1;P1;durP2;ratioP2;P2;SDS_P1;SDS_P2;PMS_P1;PMS_P2;Temp;Humidity;BMP_temperature;BMP_pressure;BME280_temperature;BME280_humidity;BME280_pressure;Samples;Min_cycle;Max_cycle;Signal;HPM_P1;HPM_P2
2022/04/09 00:02:23;;;;;;;23.38;5.22;;;;;;;8.02;60.40;99108.81;4834312;28;121916;-85
2022/04/09 00:04:49;;;;;;;20.92;5.22;;;;;;;7.94;60.66;99104.97;4838448;28;120266;-85
2022/04/09 00:07:15;;;;;;;28.73;6.35;;;;;;;8.00;60.80;99108.53;4838463;28;122274;-85
2022/04/09 00:09:41;;;;;;;20.08;4.35;;;;;;;8.02;60.70;99114.28;4819466;28;124012;-85
2022/04/09 00:12:07;;;;;;;30.85;5.18;;;;;;;7.97;60.13;99098.56;4796669;28;120672;-85
2022/04/09 00:14:33;;;;;;;21.80;4.47;;;;;;;8.04;59.91;99108.34;4806154;28;123066;-84
2022/04/09 00:16:59;;;;;;;24.52;4.97;;;;;;;8.06;59.57;99121.56;4812776;28;123200;-84
2022/04/09 00:19:25;;;;;;;19.40;4.88;;;;;;;8.08;59.50;99130.03;4838003;28;120738;-85
2022/04/09 00:21:50;;;;;;;23.85;5.28;;;;;;;8.05;59.78;99120.06;4837855;28;120100;-85
2022/04/09 00:24:16;;;;;;;21.52;5.20;;;;;;;8.02;60.03;99125.19;4795518;28;119769;-84
2022/04/09 00:26:42;;;;;;;22.00;5.03;;;;;;;8.11;59.87;99129.09;4828154;28;119785;-85
2022/04/09 00:29:07;;;;;;;23.35;5.55;;;;;;;8.13;59.94;99132.09;4825634;28;121442;-85
2022/04/09 00:31:34;;;;;;;24.35;5.13;;;;;;;8.09;59.77;99124.09;4822231;28;119378;-85
2022/04/09 00:34:00;;;;;;;25.10;4.75;;;;;;;8.10;59.71;99139.25;4821355;28;120058;-85
2022/04/09 00:36:26;;;;;;;23.73;5.00;;;;;;;8.12;59.74;99138.78;4826467;28;123096;-85
2022/04/09 00:38:51;;;;;;;19.80;4.55;;;;;;;8.13;59.63;99143.00;4818894;28;121019;-85
2022/04/09 00:41:17;;;;;;;25.10;4.53;;;;;;;8.08;59.83;99132.75;4821739;28;122338;-85
2022/04/09 00:43:43;;;;;;;17.88;4.57;;;;;;;8.18;59.82;99150.53;4821427;28;120286;-85
2022/04/09 00:46:13;;;;;;;24.65;5.00;;;;;;;8.19;59.45;99152.06;4831563;28;120084;-84
2022/04/09 00:48:40;;;;;;;27.65;4.72;;;;;;;8.12;59.42;99160.63;4848203;28;121288;-85
2022/04/09 00:51:06;;;;;;;24.00;5.03;;;;;;;8.10;59.75;99152.16;4821190;28;120540;-85
2022/04/09 00:53:39;;;;;;;22.17;4.95;;;;;;;8.14;58.78;99167.13;4812059;28;121750;-84
2022/04/09 00:56:18;;;;;;;19.27;4.70;;;;;;;8.07;59.50;99161.28;4821640;28;123123;-83
2022/04/09 00:58:55;;;;;;;24.13;5.40;;;;;;;8.09;59.79;99164.31;4805454;28;120282;-85
2022/04/09 01:01:27;;;;;;;23.88;4.50;;;;;;;8.08;60.18;99171.00;4824359;28;121742;-84
2022/04/09 01:03:54;;;;;;;21.75;4.22;;;;;;;8.05;60.26;99169.94;4808210;28;120057;-84
2022/04/09 01:06:20;;;;;;;26.73;5.40;;;;;;;8.09;60.36;99175.22;4826040;28;120545;-85
2022/04/09 01:08:46;;;;;;;25.25;5.30;;;;;;;8.00;60.97;99157.69;4810641;28;120674;-85
2022/04/09 01:11:13;;;;;;;23.77;5.22;;;;;;;8.10;59.98;99171.28;4800578;28;121021;-84
2022/04/09 01:13:40;;;;;;;22.50;4.72;;;;;;;8.04;61.05;99157.50;4841712;28;119625;-84
2022/04/09 01:16:05;;;;;;;26.38;5.07;;;;;;;8.09;60.62;99164.31;4817213;28;122571;-84
2022/04/09 01:18:33;;;;;;;17.48;4.00;;;;;;;8.18;60.40;99180.59;4806977;28;119802;-83
2022/04/09 01:21:02;;;;;;;22.40;5.47;;;;;;;8.14;61.04;99185.50;4806244;28;119964;-85
2022/04/09 01:23:28;;;;;;;25.98;5.70;;;;;;;8.16;60.17;99181.06;4822317;28;122669;-84
2022/04/09 01:25:57;;;;;;;23.00;5.13;;;;;;;8.21;59.78;99177.66;4828378;28;119744;-85
2022/04/09 01:28:24;;;;;;;22.33;4.72;;;;;;;8.21;59.85;99174.94;4832140;28;122321;-85
2022/04/09 01:30:50;;;;;;;21.77;4.60;;;;;;;8.25;60.20;99186.44;4804062;28;119561;-84
2022/04/09 01:33:18;;;;;;;17.38;4.43;;;;;;;8.26;59.99;99187.94;4816708;28;120667;-84
2022/04/09 01:35:44;;;;;;;25.33;5.15;;;;;;;8.27;60.65;99185.97;4823179;28;121273;-84
2022/04/09 01:38:11;;;;;;;26.33;5.20;;;;;;;8.26;59.86;99176.25;4803125;28;119821;-83
2022/04/09 01:40:40;;;;;;;21.77;4.68;;;;;;;8.24;59.96;99181.44;4824491;28;122320;-83
2022/04/09 01:43:10;;;;;;;19.00;4.60;;;;;;;8.25;59.98;99177.47;4819279;28;124591;-83
2022/04/09 01:45:39;;;;;;;22.27;4.38;;;;;;;8.28;60.21;99184.72;4811312;28;120764;-83
2022/04/09 01:48:20;;;;;;;16.50;3.15;;;;;;;8.33;60.39;99200.47;4807101;28;120164;-83
2022/04/09 01:50:46;;;;;;;22.50;4.68;;;;;;;8.34;59.86;99196.56;4816729;28;120258;-84
2022/04/09 01:53:12;;;;;;;19.10;4.45;;;;;;;8.36;60.11;99201.56;4800682;28;121957;-84
2022/04/09 01:55:37;;;;;;;19.90;4.10;;;;;;;8.31;60.21;99184.56;4801562;28;123368;-85
2022/04/09 01:58:03;;;;;;;22.90;4.90;;;;;;;8.26;61.39;99181.72;4806312;28;119853;-85
2022/04/09 02:00:33;;;;;;;20.63;4.32;;;;;;;8.39;60.69;99206.81;4802633;28;122806;-85
2022/04/09 02:03:00;;;;;;;25.98;4.88;;;;;;;8.29;60.59;99189.00;4821475;28;121397;-84
2022/04/09 02:05:25;;;;;;;18.60;4.20;;;;;;;8.37;60.06;99200.31;4802088;28;119765;-83
2022/04/09 02:07:51;;;;;;;19.27;4.32;;;;;;;8.42;59.59;99203.16;4810228;28;121872;-85
2022/04/09 02:10:19;;;;;;;22.05;4.55;;;;;;;8.40;59.53;99204.84;4801556;28;120888;-85
2022/04/09 02:12:45;;;;;;;20.08;4.38;;;;;;;8.43;59.44;99212.09;4807504;28;121778;-84
2022/04/09 02:15:15;;;;;;;21.15;4.93;;;;;;;8.41;59.79;99212.56;4803025;28;122849;-84
2022/04/09 02:17:43;;;;;;;19.90;4.05;;;;;;;8.44;59.46;99211.63;4809810;28;119653;-85
2022/04/09 02:20:11;;;;;;;25.17;5.05;;;;;;;8.36;59.29;99204.28;4810944;28;119549;-84
2022/04/09 02:22:41;;;;;;;18.65;4.32;;;;;;;8.46;59.93;99220.09;4811850;28;123555;-83
2022/04/09 02:25:10;;;;;;;23.27;4.25;;;;;;;8.48;59.91;99223.13;4807952;28;120077;-84
2022/04/09 02:27:36;;;;;;;20.88;4.07;;;;;;;8.50;59.44;99214.44;4824337;28;120565;-84
2022/04/09 02:30:05;;;;;;;17.10;4.07;;;;;;;8.43;59.31;99204.66;4807430;28;122716;-85
2022/04/09 02:32:44;;;;;;;19.60;4.00;;;;;;;8.37;59.52;99192.88;4822477;28;119718;-84
2022/04/09 02:35:11;;;;;;;17.65;4.53;;;;;;;8.51;60.37;99222.16;4807695;28;123296;-84
2022/04/09 02:37:39;;;;;;;23.80;5.18;;;;;;;8.61;60.07;99231.78;4823029;28;120478;-84
2022/04/09 02:40:05;;;;;;;25.95;4.20;;;;;;;8.67;59.32;99253.00;4818248;28;120303;-85
2022/04/09 02:42:31;;;;;;;18.95;3.72;;;;;;;8.64;58.39;99262.91;4795881;28;121912;-84
2022/04/09 02:44:57;;;;;;;19.40;3.75;;;;;;;8.69;58.85;99280.59;4806296;28;119773;-84
2022/04/09 02:47:23;;;;;;;12.13;3.22;;;;;;;8.60;59.13;99265.06;4804066;28;121585;-84
2022/04/09 02:49:49;;;;;;;13.48;3.50;;;;;;;8.63;59.93;99285.22;4808975;28;120263;-83
2022/04/09 02:52:14;;;;;;;12.88;3.20;;;;;;;8.62;60.62;99287.22;4823818;28;121383;-83
2022/04/09 02:54:40;;;;;;;11.73;3.08;;;;;;;8.61;60.66;99282.97;4842386;28;119851;-82
2022/04/09 02:57:06;;;;;;;10.85;2.53;;;;;;;8.59;60.77;99272.50;4823032;28;119530;-83
2022/04/09 02:59:43;;;;;;;11.68;2.97;;;;;;;8.55;61.88;99261.03;4813053;28;121960;-83
2022/04/09 03:02:09;;;;;;;15.55;3.08;;;;;;;8.55;61.52;99266.47;4818987;28;123071;-84
2022/04/09 03:04:35;;;;;;;8.50;2.50;;;;;;;8.57;61.74;99274.97;4806587;28;120235;-83
2022/04/09 03:07:00;;;;;;;11.45;2.63;;;;;;;8.52;61.66;99259.22;4819190;28;121742;-83
2022/04/09 03:09:26;;;;;;;12.40;2.35;;;;;;;8.52;61.48;99274.88;4806580;28;122340;-83
2022/04/09 03:11:52;;;;;;;10.23;2.45;;;;;;;8.45;61.25;99267.78;4808419;28;119916;-84
2022/04/09 03:14:17;;;;;;;11.20;2.42;;;;;;;8.41;61.25;99278.13;4811099;28;122269;-83
2022/04/09 03:16:43;;;;;;;9.43;2.30;;;;;;;8.40;62.08;99276.63;4803611;28;119464;-83
2022/04/09 03:19:09;;;;;;;7.65;2.20;;;;;;;8.42;61.88;99279.66;4819418;28;122462;-84
2022/04/09 03:21:35;;;;;;;10.48;2.63;;;;;;;8.37;62.28;99279.56;4801968;28;123010;-84
2022/04/09 03:24:00;;;;;;;8.48;2.30;;;;;;;8.39;62.40;99282.56;4806256;28;120182;-83
2022/04/09 03:26:26;;;;;;;12.13;2.63;;;;;;;8.43;62.44;99285.88;4809922;28;121829;-84
2022/04/09 03:28:59;;;;;;;9.73;2.00;;;;;;;8.42;62.14;99293.31;4806718;28;123164;-84
2022/04/09 03:31:25;;;;;;;6.25;1.90;;;;;;;8.53;62.82;99300.97;4807649;28;119893;-84
2022/04/09 03:33:52;;;;;;;5.75;1.63;;;;;;;8.52;61.37;99294.00;4814184;28;120656;-83
2022/04/09 03:36:20;;;;;;;7.18;1.70;;;;;;;8.48;61.99;99288.69;4823034;28;120158;-84
2022/04/09 03:38:46;;;;;;;5.38;1.45;;;;;;;8.47;61.66;99295.38;4820426;28;122168;-82
2022/04/09 03:41:12;;;;;;;5.57;1.67;;;;;;;8.47;61.37;99300.84;4803711;28;122794;-83
2022/04/09 03:43:50;;;;;;;5.10;1.80;;;;;;;8.41;61.80;99297.25;4822796;28;119661;-84
2022/04/09 03:46:17;;;;;;;8.63;1.90;;;;;;;8.39;62.25;99296.97;4802801;28;122736;-84
2022/04/09 03:48:43;;;;;;;4.10;1.30;;;;;;;8.46;61.63;99304.06;4821420;28;122829;-84
2022/04/09 03:51:11;;;;;;;4.70;1.30;;;;;;;8.46;61.08;99304.06;4831387;28;119587;-84
2022/04/09 03:53:40;;;;;;;6.80;1.58;;;;;;;8.41;61.81;99304.72;4819162;28;122943;-82
2022/04/09 03:56:07;;;;;;;7.03;1.67;;;;;;;8.39;61.26;99299.72;4808659;28;123352;-82
2022/04/09 03:58:37;;;;;;;7.82;1.80;;;;;;;8.33;62.10;99287.91;4808560;28;122315;-83
2022/04/09 04:01:04;;;;;;;6.20;1.70;;;;;;;8.41;61.17;99299.25;4804660;28;122618;-83
2022/04/09 04:03:31;;;;;;;6.28;1.90;;;;;;;8.47;62.71;99298.13;4820772;28;120131;-83
2022/04/09 04:05:56;;;;;;;8.82;1.85;;;;;;;8.47;62.26;99295.38;4806202;28;122074;-83
2022/04/09 04:08:23;;;;;;;10.90;1.90;;;;;;;8.46;61.86;99298.59;4822921;28;119912;-84
2022/04/09 04:10:51;;;;;;;7.35;2.10;;;;;;;8.49;63.00;99309.34;4821058;28;119736;-83
2022/04/09 04:13:22;;;;;;;10.30;2.45;;;;;;;8.47;62.39;99306.31;4804065;28;122064;-83
2022/04/09 04:15:47;;;;;;;9.35;2.00;;;;;;;8.55;63.07;99309.47;4804311;28;122996;-83
2022/04/09 04:18:16;;;;;;;11.55;2.30;;;;;;;8.54;61.74;99316.91;4805454;28;119475;-82
2022/04/09 04:20:46;;;;;;;9.45;2.10;;;;;;;8.47;61.98;99308.28;4804060;28;122770;-83
2022/04/09 04:23:14;;;;;;;14.07;2.60;;;;;;;8.56;62.21;99317.19;4818066;28;120329;-83
2022/04/09 04:25:40;;;;;;;7.85;2.13;;;;;;;8.57;61.68;99317.94;4805653;28;121754;-83
2022/04/09 04:28:07;;;;;;;11.70;2.63;;;;;;;8.56;62.69;99306.25;4820588;28;122724;-83
2022/04/09 04:30:34;;;;;;;15.35;2.78;;;;;;;8.73;62.22;99324.91;4802658;28;120243;-84
2022/04/09 04:33:00;;;;;;;13.52;2.40;;;;;;;8.69;62.27;99325.09;4802122;28;122111;-83
2022/04/09 04:35:35;;;;;;;14.10;2.95;;;;;;;8.68;62.29;99322.84;4797642;28;123381;-83
2022/04/09 04:38:04;;;;;;;15.93;3.58;;;;;;;8.68;62.71;99315.41;4810725;28;120243;-83
2022/04/09 04:40:32;;;;;;;16.67;2.97;;;;;;;8.73;62.44;99322.19;4817741;28;121798;-83
2022/04/09 04:43:03;;;;;;;13.75;2.55;;;;;;;8.84;61.99;99331.34;4805758;28;120020;-83
2022/04/09 04:45:30;;;;;;;18.60;3.30;;;;;;;8.81;62.81;99324.09;4820708;28;120837;-83
2022/04/09 04:47:58;;;;;;;12.95;2.95;;;;;;;8.96;63.23;99337.00;4828221;28;120545;-83
2022/04/09 04:50:27;;;;;;;13.93;2.88;;;;;;;9.03;61.94;99351.06;4805924;28;120098;-83
2022/04/09 04:52:54;;;;;;;15.05;2.72;;;;;;;9.08;62.26;99352.38;4824054;28;119518;-83
2022/04/09 04:55:28;;;;;;;13.70;2.80;;;;;;;9.17;63.21;99361.25;4819247;28;122935;-83
2022/04/09 04:57:55;;;;;;;12.45;3.17;;;;;;;9.17;62.34;99349.53;4825965;28;119533;-83
2022/04/09 05:00:30;;;;;;;12.00;2.78;;;;;;;9.26;61.43;99357.66;4805639;28;122336;-83
2022/04/09 05:03:01;;;;;;;13.82;2.83;;;;;;;9.37;62.21;99365.28;4818013;28;119963;-83
2022/04/09 05:05:27;;;;;;;11.10;2.40;;;;;;;9.38;61.74;99372.25;4802387;28;121764;-82
2022/04/09 05:07:54;;;;;;;9.73;2.60;;;;;;;9.40;60.92;99380.75;4808315;28;122960;-82
2022/04/09 05:10:24;;;;;;;11.30;2.60;;;;;;;9.35;60.20;99382.19;4833849;28;119891;-82
2022/04/09 05:12:54;;;;;;;8.32;2.28;;;;;;;9.34;61.09;99397.09;4804309;28;121726;-83
2022/04/09 05:15:22;;;;;;;11.48;2.20;;;;;;;9.29;60.02;99386.06;4835996;28;119868;-81
2022/04/09 05:17:50;;;;;;;7.43;1.92;;;;;;;9.25;60.11;99388.22;4803496;28;119808;-82
2022/04/09 05:20:16;;;;;;;9.85;2.30;;;;;;;9.20;60.12;99387.66;4810806;28;121755;-82
2022/04/09 05:22:47;;;;;;;11.57;2.50;;;;;;;9.21;60.04;99386.41;4809763;28;122563;-82
2022/04/09 05:25:18;;;;;;;8.70;2.05;;;;;;;9.15;59.85;99382.84;4835336;28;120066;-82
2022/04/09 05:27:50;;;;;;;10.38;2.63;;;;;;;9.18;60.62;99403.78;4802415;28;122707;-83
2022/04/09 05:30:25;;;;;;;9.75;2.13;;;;;;;9.10;60.74;99375.28;4804895;28;119647;-82
2022/04/09 05:32:52;;;;;;;11.77;2.40;;;;;;;9.33;61.33;99408.50;4835657;28;119740;-83
2022/04/09 05:35:17;;;;;;;11.25;2.10;;;;;;;9.44;60.80;99414.16;4820228;28;119752;-82
2022/04/09 05:37:48;;;;;;;10.27;2.28;;;;;;;9.50;61.87;99418.50;4802834;28;119596;-82
2022/04/09 05:40:18;;;;;;;16.23;3.13;;;;;;;9.67;62.08;99434.44;4821656;28;121214;-83
2022/04/09 05:42:44;;;;;;;12.70;2.92;;;;;;;9.79;62.85;99433.38;4817267;28;123357;-82
2022/04/09 05:45:12;;;;;;;10.55;2.60;;;;;;;9.87;61.40;99439.22;4836396;28;119632;-83
2022/04/09 05:47:42;;;;;;;11.93;2.88;;;;;;;9.83;60.46;99425.72;4818929;28;120366;-82
2022/04/09 05:50:11;;;;;;;10.88;2.47;;;;;;;9.71;59.97;99427.56;4806320;28;120321;-82
2022/04/09 05:52:38;;;;;;;11.52;2.75;;;;;;;9.71;60.49;99422.09;4798886;28;122107;-82
2022/04/09 05:55:05;;;;;;;13.90;2.85;;;;;;;9.71;61.22;99429.53;4804096;28;123548;-82
2022/04/09 05:57:32;;;;;;;16.23;3.22;;;;;;;9.80;61.58;99441.13;4819841;28;119614;-82
2022/04/09 06:00:04;;;;;;;15.73;3.30;;;;;;;9.86;62.36;99433.00;4821625;28;120349;-82
2022/04/09 06:02:30;;;;;;;16.05;2.78;;;;;;;9.97;61.86;99437.91;4849585;28;120351;-83
2022/04/09 06:04:57;;;;;;;14.40;2.95;;;;;;;10.03;61.73;99449.69;4804024;28;120207;-82
2022/04/09 06:07:24;;;;;;;12.30;2.88;;;;;;;9.97;61.01;99443.38;4808203;28;123236;-81
2022/04/09 06:10:06;;;;;;;15.35;3.28;;;;;;;10.02;60.65;99454.41;4819454;28;119406;-81
2022/04/09 06:12:33;;;;;;;9.70;2.35;;;;;;;9.99;61.06;99449.13;4836663;28;120173;-82
2022/04/09 06:15:08;;;;;;;9.88;2.20;;;;;;;9.94;60.86;99449.81;4799729;28;123831;-82
2022/04/09 06:17:40;;;;;;;12.50;2.38;;;;;;;9.92;60.05;99452.25;4805175;28;119394;-82
2022/04/09 06:20:08;;;;;;;14.18;2.83;;;;;;;9.87;59.93;99450.19;4809586;28;121797;-82
2022/04/09 06:22:34;;;;;;;12.50;2.30;;;;;;;9.83;61.05;99444.91;4846266;28;120623;-82
2022/04/09 06:25:00;;;;;;;9.45;2.70;;;;;;;9.95;61.13;99468.50;4817472;28;119827;-82
2022/04/09 06:27:26;;;;;;;13.52;2.72;;;;;;;10.01;60.93;99474.06;4820566;28;119369;-82
2022/04/09 06:29:52;;;;;;;11.48;2.72;;;;;;;10.03;61.00;99463.38;4807561;28;122988;-82
2022/04/09 06:32:19;;;;;;;17.35;3.10;;;;;;;10.20;62.16;99477.34;4817292;28;123324;-82
2022/04/09 06:34:45;;;;;;;12.93;2.80;;;;;;;10.31;61.32;99475.53;4803787;28;123412;-82
2022/04/09 06:37:20;;;;;;;12.30;2.88;;;;;;;10.33;61.91;99464.84;4805500;28;119722;-81
2022/04/09 06:39:45;;;;;;;13.73;3.15;;;;;;;10.41;61.46;99479.66;4803235;28;123081;-82
2022/04/09 06:42:11;;;;;;;13.77;2.88;;;;;;;10.57;60.75;99477.59;4811388;28;122504;-81
2022/04/09 06:45:09;;;;;;;;;;;;;;;10.66;60.89;99480.25;4819480;28;119905;-81
2022/04/09 06:47:55;;;;;;;12.95;2.65;;;;;;;10.72;61.50;99478.31;4830768;28;119528;-82
2022/04/09 06:50:20;;;;;;;14.57;3.28;;;;;;;10.73;59.92;99479.81;4811267;28;123876;-81
2022/04/09 06:52:46;;;;;;;19.45;3.10;;;;;;;10.77;59.58;99480.38;4809041;28;120422;-81
2022/04/09 06:55:27;;;;;;;18.38;3.67;;;;;;;10.77;60.55;99478.38;4827358;28;123266;-82
2022/04/09 06:58:02;;;;;;;14.73;3.15;;;;;;;10.83;59.32;99483.16;4810800;28;120473;-81
2022/04/09 07:00:33;;;;;;;14.80;3.08;;;;;;;10.85;59.17;99483.44;4822490;28;122617;-82
2022/04/09 07:03:03;;;;;;;16.98;3.67;;;;;;;10.83;59.10;99497.63;4832898;28;121644;-82
2022/04/09 07:05:28;;;;;;;16.45;3.22;;;;;;;10.88;58.41;99513.41;4812195;28;119570;-81
2022/04/09 07:07:54;;;;;;;16.23;3.40;;;;;;;10.86;58.71;99515.88;4824808;28;120295;-82
2022/04/09 07:10:20;;;;;;;18.40;3.67;;;;;;;10.85;59.02;99506.13;4826711;28;122683;-82
2022/04/09 07:12:45;;;;;;;10.10;2.70;;;;;;;10.88;60.89;99510.66;4828487;28;119408;-81
2022/04/09 07:15:12;;;;;;;18.58;3.22;;;;;;;10.92;59.32;99516.72;4821927;28;122433;-82
2022/04/09 07:17:40;;;;;;;14.48;2.97;;;;;;;11.00;58.15;99528.03;4832282;28;121419;-81
2022/04/09 07:20:10;;;;;;;17.98;3.35;;;;;;;10.99;58.60;99519.03;4828085;28;122367;-82
2022/04/09 07:22:37;;;;;;;17.58;3.50;;;;;;;11.01;57.59;99529.53;4823603;29;123513;-82
2022/04/09 07:25:04;;;;;;;13.82;3.13;;;;;;;11.07;57.53;99536.59;4817500;28;119943;-82
2022/04/09 07:27:42;;;;;;;13.40;3.25;;;;;;;11.22;58.54;99541.25;4850459;28;119930;-81
2022/04/09 07:30:16;;;;;;;16.33;3.40;;;;;;;11.37;57.11;99541.94;4804090;29;121484;-81
2022/04/09 07:32:43;;;;;;;12.02;2.80;;;;;;;11.43;56.80;99539.25;4838214;28;119676;-81
2022/04/09 07:35:12;;;;;;;13.32;2.78;;;;;;;11.37;56.10;99526.22;4841260;28;121897;-82
2022/04/09 07:37:46;;;;;;;13.77;2.80;;;;;;;11.39;56.95;99553.19;4823635;28;120153;-80
2022/04/09 07:40:14;;;;;;;10.13;2.75;;;;;;;11.36;57.07;99541.19;4818974;28;119946;-81
2022/04/09 07:42:42;;;;;;;11.45;2.88;;;;;;;11.48;57.19;99544.78;4819365;28;122656;-81
2022/04/09 07:45:08;;;;;;;15.00;2.75;;;;;;;11.50;57.65;99552.53;4820982;28;120195;-81
2022/04/09 07:47:35;;;;;;;14.38;3.20;;;;;;;11.63;56.82;99558.41;4838466;28;120432;-81
2022/04/09 07:50:00;;;;;;;13.90;3.22;;;;;;;11.61;56.17;99563.66;4835093;28;119849;-81
2022/04/09 07:52:27;;;;;;;16.83;3.40;;;;;;;11.61;56.00;99569.13;4820179;29;119702;-82
2022/04/09 07:54:52;;;;;;;14.40;3.42;;;;;;;11.56;55.92;99565.06;4853502;28;119438;-81
2022/04/09 07:57:18;;;;;;;14.98;2.83;;;;;;;11.58;55.80;99573.59;4823511;29;122873;-81
2022/04/09 07:59:44;;;;;;;12.90;3.50;;;;;;;11.49;56.64;99568.25;4810504;28;122035;-81
2022/04/09 08:02:09;;;;;;;14.98;3.33;;;;;;;11.44;55.52;99577.19;4821863;28;120445;-81
2022/04/09 08:04:35;;;;;;;12.07;3.17;;;;;;;11.40;55.42;99575.91;4803655;29;119930;-81
2022/04/09 08:07:00;;;;;;;12.88;3.03;;;;;;;11.26;56.08;99564.50;4816485;29;122353;-81
2022/04/09 08:09:26;;;;;;;14.32;3.03;;;;;;;11.45;56.92;99586.94;4850744;28;120132;-81
2022/04/09 08:11:53;;;;;;;14.95;3.10;;;;;;;11.52;57.40;99585.75;4842031;28;120102;-81
2022/04/09 08:14:18;;;;;;;11.15;2.65;;;;;;;11.56;56.07;99583.53;4822854;28;120439;-82
2022/04/09 08:16:44;;;;;;;9.30;2.63;;;;;;;11.69;56.34;99589.44;4837753;28;120000;-81
2022/04/09 08:19:12;;;;;;;8.10;2.10;;;;;;;11.77;55.49;99592.50;4841539;28;120090;-81
2022/04/09 08:21:37;;;;;;;10.00;2.30;;;;;;;11.90;55.86;99604.66;4805634;28;123017;-81
2022/04/09 08:24:03;;;;;;;10.65;2.55;;;;;;;11.99;54.95;99593.50;4807455;28;119896;-80
2022/04/09 08:26:29;;;;;;;18.42;3.30;;;;;;;12.11;54.60;99597.13;4818858;28;122148;-80
2022/04/09 08:28:56;;;;;;;14.18;3.30;;;;;;;12.32;56.20;99592.28;4838863;28;120247;-81
2022/04/09 08:31:22;;;;;;;10.48;2.67;;;;;;;12.56;54.81;99586.47;4804610;28;119561;-81
2022/04/09 08:33:48;;;;;;;12.77;3.25;;;;;;;12.73;52.75;99594.81;4822018;28;119778;-81
2022/04/09 08:36:17;;;;;;;13.80;2.75;;;;;;;12.67;52.86;99603.03;4837862;28;122794;-82
2022/04/09 08:38:42;;;;;;;15.10;3.13;;;;;;;12.56;53.86;99611.22;4838094;28;120437;-81
2022/04/09 08:41:09;;;;;;;14.85;3.33;;;;;;;12.38;53.72;99628.06;4813385;28;120900;-81
2022/04/09 08:43:34;;;;;;;12.40;3.10;;;;;;;12.17;53.80;99628.16;4803782;28;119886;-81
2022/04/09 08:46:02;;;;;;;10.52;3.03;;;;;;;12.01;55.19;99619.75;4838493;28;120262;-81
2022/04/09 08:48:28;;;;;;;14.15;3.45;;;;;;;12.03;55.67;99640.00;4831645;28;119824;-80
2022/04/09 08:50:54;;;;;;;12.52;3.30;;;;;;;12.05;56.02;99643.00;4837262;28;119832;-81
2022/04/09 08:53:21;;;;;;;17.60;3.80;;;;;;;11.97;55.65;99658.44;4804203;28;121800;-82
2022/04/09 08:55:48;;;;;;;9.27;2.30;;;;;;;11.83;53.76;99703.22;4824270;28;122168;-83
2022/04/09 08:58:14;;;;;;;7.13;1.80;;;;;;;11.54;55.45;99687.63;4820137;28;121289;-81
2022/04/09 09:00:40;;;;;;;6.70;2.30;;;;;;;11.25;55.53;99674.78;4835526;28;121206;-82
2022/04/09 09:03:10;;;;;;;7.47;2.05;;;;;;;11.04;56.31;99690.47;4808443;28;123223;-82
2022/04/09 09:05:41;;;;;;;11.00;2.45;;;;;;;10.89;57.46;99687.75;4829896;28;121618;-81
2022/04/09 09:08:09;;;;;;;12.57;2.40;;;;;;;10.66;58.31;99674.94;4832523;28;121777;-81
2022/04/09 09:10:35;;;;;;;9.15;2.17;;;;;;;10.62;58.31;99682.56;4827593;28;119819;-81
2022/04/09 09:13:09;;;;;;;8.93;2.13;;;;;;;10.59;58.92;99683.53;4804747;28;122474;-80
2022/04/09 09:15:48;;;;;;;9.48;2.50;;;;;;;10.66;59.00;99696.88;4818872;28;123644;-82
2022/04/09 09:18:19;;;;;;;8.48;2.40;;;;;;;10.69;60.11;99698.66;4837975;28;119833;-82
2022/04/09 09:20:52;;;;;;;10.40;2.65;;;;;;;10.79;62.14;99696.56;4823924;28;121752;-82
2022/04/09 09:23:25;;;;;;;11.02;2.47;;;;;;;10.83;61.79;99684.16;4806002;28;122786;-81
2022/04/09 09:25:53;;;;;;;12.55;2.97;;;;;;;10.87;60.39;99687.47;4848701;28;120356;-81
2022/04/09 09:28:32;;;;;;;12.90;3.15;;;;;;;10.86;60.84;99694.19;4818300;28;119899;-83
2022/04/09 09:30:59;;;;;;;10.65;2.30;;;;;;;10.91;61.63;99695.53;4804672;28;119775;-83
2022/04/09 09:33:25;;;;;;;10.50;2.33;;;;;;;11.01;61.39;99714.13;4816726;28;121848;-83
2022/04/09 09:35:59;;;;;;;7.93;2.00;;;;;;;11.13;61.12;99711.56;4818726;28;120746;-83
2022/04/09 09:38:27;;;;;;;;;;;;;;;11.22;61.06;99725.16;4834891;28;119968;-80
2022/04/09 09:40:53;;;;;;;12.57;2.47;;;;;;;11.29;60.19;99717.25;4802721;28;121416;-84
2022/04/09 09:43:21;;;;;;;10.18;2.20;;;;;;;11.34;61.15;99713.84;4833151;28;120145;-84
2022/04/09 09:45:48;;;;;;;9.63;2.28;;;;;;;11.58;61.80;99716.41;4807283;28;119934;-83
2022/04/09 09:48:25;;;;;;;10.63;1.90;;;;;;;11.68;57.82;99748.00;4817126;28;121324;-85
2022/04/09 09:50:52;;;;;;;6.70;1.45;;;;;;;11.37;56.96;99751.34;4833819;28;119765;-82
2022/04/09 09:53:37;;;;;;;6.50;1.70;;;;;;;11.07;57.26;99761.59;4832724;28;121622;-82
2022/04/09 09:56:03;;;;;;;8.48;1.75;;;;;;;10.84;58.02;99748.00;4833602;28;122685;-82
2022/04/09 09:58:31;;;;;;;11.25;2.17;;;;;;;10.66;58.45;99759.94;4851717;28;119730;-83
2022/04/09 10:00:57;;;;;;;10.90;2.30;;;;;;;10.50;58.90;99760.41;4850574;28;119529;-83
2022/04/09 10:03:25;;;;;;;13.82;2.75;;;;;;;10.41;59.80;99756.53;4832567;28;120969;-83
2022/04/09 10:05:51;;;;;;;11.40;2.17;;;;;;;10.36;59.88;99751.69;4818942;28;119914;-83
2022/04/09 10:08:18;;;;;;;20.23;3.33;;;;;;;10.49;61.21;99750.66;4821332;28;121772;-82
2022/04/09 10:10:48;;;;;;;21.83;3.70;;;;;;;10.70;61.49;99760.50;4818542;28;119978;-82
2022/04/09 10:13:20;;;;;;;15.57;3.05;;;;;;;10.81;61.18;99752.47;4817486;28;121695;-83
2022/04/09 10:15:50;;;;;;;16.10;3.08;;;;;;;10.87;60.68;99755.28;4833391;28;119896;-82
2022/04/09 10:18:23;;;;;;;20.13;3.65;;;;;;;10.94;60.00;99763.16;4803150;28;120014;-82
2022/04/09 10:20:59;;;;;;;13.93;3.27;;;;;;;10.93;59.74;99773.38;4817191;28;122720;-83
2022/04/09 10:23:29;;;;;;;20.98;4.00;;;;;;;10.93;58.63;99778.84;4816358;28;121353;-84
2022/04/09 10:25:56;;;;;;;22.70;3.80;;;;;;;10.90;59.04;99768.06;4813845;28;122135;-82
2022/04/09 10:28:40;;;;;;;15.25;3.95;;;;;;;10.89;58.34;99783.78;4828724;28;122240;-82
2022/04/09 10:31:24;;;;;;;22.40;5.05;;;;;;;10.88;58.21;99798.69;4822902;28;123679;-81
2022/04/09 10:33:55;;;;;;;27.42;4.70;;;;;;;10.90;58.52;99781.78;4822150;28;122158;-81
2022/04/09 10:36:39;;;;;;;19.75;4.15;;;;;;;10.98;58.31;99780.94;4829147;28;120114;-82
2022/04/09 10:39:25;;;;;;;;;;;;;;;11.11;58.95;99771.63;4833094;28;120894;-79
2022/04/09 10:41:53;;;;;;;26.50;5.07;;;;;;;11.40;59.16;99777.06;4816385;28;120278;-83
2022/04/09 10:44:44;;;;;;;22.08;4.82;;;;;;;11.68;56.13;99791.19;4830837;28;122875;-83
2022/04/09 10:47:14;;;;;;;28.05;5.32;;;;;;;11.66;56.19;99783.44;4829586;28;121346;-82
2022/04/09 10:49:41;;;;;;;26.65;5.10;;;;;;;11.78;54.10;99798.09;4818158;28;119810;-82
2022/04/09 10:52:16;;;;;;;22.58;5.03;;;;;;;11.59;53.94;99818.78;4804650;28;122698;-82
2022/04/09 10:55:10;;;;;;;24.27;4.72;;;;;;;11.45;54.48;99869.00;4838777;28;120076;-83
2022/04/09 10:57:44;;;;;;;22.33;5.97;;;;;;;11.07;53.98;99852.16;4818461;28;122717;-83
2022/04/09 11:00:26;;;;;;;;;;;;;;;10.84;54.90;99863.97;4819818;28;119924;-82
2022/04/09 11:03:10;;;;;;;17.10;4.20;;;;;;;10.72;56.43;99876.00;4818779;28;122315;-82
2022/04/09 11:05:39;;;;;;;15.35;3.28;;;;;;;10.62;53.02;99863.56;4819124;28;123366;-83
2022/04/09 11:08:19;;;;;;;16.63;3.28;;;;;;;10.57;52.04;99864.22;4819195;28;121497;-83
2022/04/09 11:10:44;;;;;;;15.43;3.67;;;;;;;10.58;53.20;99852.78;4818930;28;122723;-82
2022/04/09 11:13:12;;;;;;;19.10;4.10;;;;;;;10.65;54.88;99837.97;4818345;28;120356;-83
2022/04/09 11:15:44;;;;;;;18.92;3.90;;;;;;;10.77;53.82;99836.94;4835829;28;119521;-83
2022/04/09 11:18:09;;;;;;;32.63;5.65;;;;;;;10.74;53.98;99835.13;4839398;28;120180;-82
2022/04/09 11:20:37;;;;;;;23.45;5.03;;;;;;;10.77;52.85;99848.66;4833729;28;119794;-83
2022/04/09 11:23:14;;;;;;;23.40;4.68;;;;;;;10.81;54.58;99848.47;4820498;28;119566;-82
2022/04/09 11:25:44;;;;;;;26.20;5.57;;;;;;;10.91;55.22;99849.16;4832082;28;120437;-82
2022/04/09 11:28:21;;;;;;;33.47;6.57;;;;;;;11.05;55.93;99843.66;4831316;28;119601;-83
2022/04/09 11:30:54;;;;;;;35.00;5.60;;;;;;;11.22;56.21;99859.66;4815110;28;121441;-82
2022/04/09 11:33:20;;;;;;;27.90;5.70;;;;;;;11.30;56.67;99855.28;4803155;28;122661;-82